createdAt,value
2023-05-22T00:00:18.002Z,0.00
2023-05-22T00:01:18.022Z,0.00
2023-05-22T00:02:18.099Z,0.00
2023-05-22T00:03:18.139Z,0.00
2023-05-22T00:04:18.124Z,0.00
2023-05-22T00:05:18.143Z,0.00
2023-05-22T00:06:18.154Z,0.00
2023-05-22T00:07:18.179Z,0.00
2023-05-22T00:08:18.203Z,0.00
2023-05-22T00:09:18.294Z,0.00
2023-05-22T00:10:18.298Z,0.00
2023-05-22T00:11:18.278Z,0.00
2023-05-22T00:12:18.307Z,0.00
2023-05-22T00:13:18.340Z,0.00
2023-05-22T00:14:18.353Z,0.00
2023-05-22T00:15:18.402Z,0.00
2023-05-22T00:16:18.404Z,0.00
2023-05-22T00:17:18.607Z,0.00
2023-05-22T00:18:18.455Z,0.00
2023-05-22T00:19:18.560Z,0.00
2023-05-22T00:20:18.562Z,0.00
2023-05-22T00:21:18.548Z,0.00
2023-05-22T00:22:18.561Z,0.00
2023-05-22T00:23:18.587Z,0.00
2023-05-22T00:24:18.622Z,0.00
2023-05-22T00:25:18.636Z,0.00
2023-05-22T00:26:19.549Z,0.00
2023-05-22T00:27:18.689Z,0.00
2023-05-22T00:28:18.709Z,0.00
2023-05-22T00:29:18.791Z,0.00
2023-05-22T00:30:18.772Z,0.00
2023-05-22T00:31:18.802Z,0.00
2023-05-22T00:32:18.808Z,0.00
2023-05-22T00:33:18.833Z,0.00
2023-05-22T00:34:18.922Z,0.00
2023-05-22T00:35:18.890Z,0.00
2023-05-22T00:36:18.913Z,0.00
2023-05-22T00:37:18.934Z,0.00
2023-05-22T00:38:18.989Z,0.00
2023-05-22T00:39:18.982Z,0.00
2023-05-22T00:40:19.012Z,0.00
2023-05-22T00:41:19.033Z,0.00
2023-05-22T00:42:19.068Z,0.00
2023-05-22T00:43:19.131Z,0.00
2023-05-22T00:44:19.111Z,0.00
2023-05-22T00:45:19.142Z,0.00
2023-05-22T00:46:19.203Z,0.00
2023-05-22T00:47:19.189Z,0.00
2023-05-22T00:48:19.248Z,0.00
2023-05-22T00:49:19.232Z,0.00
2023-05-22T00:50:19.258Z,0.00
2023-05-22T00:51:19.284Z,0.00
2023-05-22T00:52:19.314Z,0.00
2023-05-22T00:53:19.378Z,0.00
2023-05-22T00:54:19.360Z,0.00
2023-05-22T00:55:19.396Z,0.00
2023-05-22T00:56:19.413Z,0.00
2023-05-22T00:57:19.442Z,0.00
2023-05-22T00:58:19.495Z,0.00
2023-05-22T00:59:19.508Z,0.00
2023-05-22T01:00:19.510Z,0.00
2023-05-22T01:01:19.566Z,0.00
2023-05-22T01:02:19.551Z,0.00
2023-05-22T01:03:19.671Z,0.00
2023-05-22T01:04:19.679Z,0.00
2023-05-22T01:05:19.629Z,0.00
2023-05-22T01:06:19.658Z,0.00
2023-05-22T01:07:19.682Z,0.00
2023-05-22T01:08:19.754Z,0.00
2023-05-22T01:09:19.730Z,0.00
2023-05-22T01:10:19.750Z,0.00
2023-05-22T01:11:19.776Z,0.00
2023-05-22T01:12:19.804Z,0.00
2023-05-22T01:13:19.850Z,0.00
2023-05-22T01:14:19.952Z,0.00
2023-05-22T01:15:19.920Z,0.00
2023-05-22T01:16:19.988Z,0.00
2023-05-22T01:17:19.926Z,0.00
2023-05-22T01:18:20.001Z,0.00
2023-05-22T01:19:19.993Z,0.00
2023-05-22T01:20:20.030Z,0.00
2023-05-22T01:21:20.032Z,0.00
2023-05-22T01:22:20.052Z,0.00
2023-05-22T01:23:20.078Z,0.00
2023-05-22T01:24:20.095Z,0.00
2023-05-22T01:25:20.116Z,0.00
2023-05-22T01:26:20.144Z,0.00
2023-05-22T01:27:20.167Z,0.00
2023-05-22T01:28:20.207Z,0.00
2023-05-22T01:29:20.279Z,0.00
2023-05-22T01:30:20.265Z,0.00
2023-05-22T01:31:20.273Z,0.00
2023-05-22T01:32:20.289Z,0.00
2023-05-22T01:33:20.369Z,0.00
2023-05-22T01:34:20.392Z,0.00
2023-05-22T01:35:20.365Z,0.00
2023-05-22T01:36:20.402Z,0.00
2023-05-22T01:37:20.413Z,0.00
2023-05-22T01:38:20.434Z,0.00
2023-05-22T01:39:20.527Z,0.00
2023-05-22T01:40:20.497Z,0.00
2023-05-22T01:41:20.512Z,0.00
2023-05-22T01:42:20.543Z,0.00
2023-05-22T01:43:20.573Z,0.00
2023-05-22T01:44:20.625Z,0.00
2023-05-22T01:45:20.615Z,0.00
2023-05-22T01:46:20.768Z,0.00
2023-05-22T01:47:20.714Z,0.00
2023-05-22T01:48:20.709Z,0.00
2023-05-22T01:49:20.708Z,0.00
2023-05-22T01:50:20.770Z,0.00
2023-05-22T01:51:20.781Z,0.00
2023-05-22T01:52:20.786Z,0.00
2023-05-22T01:53:20.811Z,0.00
2023-05-22T01:54:20.826Z,0.00
2023-05-22T01:55:20.901Z,0.00
2023-05-22T01:56:20.893Z,0.00
2023-05-22T01:57:21.608Z,0.00
2023-05-22T01:58:20.925Z,0.00
2023-05-22T01:59:20.956Z,0.00
2023-05-22T02:00:21.002Z,0.00
2023-05-22T02:01:21.046Z,0.00
2023-05-22T02:02:21.119Z,0.00
2023-05-22T02:03:21.152Z,0.00
2023-05-22T02:04:21.096Z,0.00
2023-05-22T02:05:21.170Z,0.00
2023-05-22T02:06:21.119Z,0.00
2023-05-22T02:07:21.175Z,0.00
2023-05-22T02:08:21.177Z,0.00
2023-05-22T02:09:21.197Z,0.00
2023-05-22T02:10:21.211Z,0.00
2023-05-22T02:11:21.235Z,0.00
2023-05-22T02:12:21.337Z,0.00
2023-05-22T02:13:21.296Z,0.00
2023-05-22T02:14:21.317Z,0.00
2023-05-22T02:15:21.344Z,0.00
2023-05-22T02:16:21.436Z,0.00
2023-05-22T02:17:21.408Z,0.00
2023-05-22T02:18:21.477Z,0.00
2023-05-22T02:19:21.489Z,0.00
2023-05-22T02:20:21.461Z,0.00
2023-05-22T02:21:21.508Z,0.00
2023-05-22T02:22:21.507Z,0.00
2023-05-22T02:23:21.593Z,0.00
2023-05-22T02:24:21.561Z,0.00
2023-05-22T02:25:21.569Z,0.00
2023-05-22T02:26:21.593Z,0.00
2023-05-22T02:27:21.621Z,0.00
2023-05-22T02:28:21.669Z,0.00
2023-05-22T02:29:21.669Z,0.00
2023-05-22T02:30:21.720Z,0.00
2023-05-22T02:31:21.777Z,0.00
2023-05-22T02:32:21.776Z,0.00
2023-05-22T02:33:21.793Z,0.00
2023-05-22T02:34:21.798Z,0.00
2023-05-22T02:35:21.848Z,0.00
2023-05-22T02:36:21.847Z,0.00
2023-05-22T02:37:21.865Z,0.00
2023-05-22T02:38:21.881Z,0.00
2023-05-22T02:39:21.904Z,0.00
2023-05-22T02:40:21.960Z,0.00
2023-05-22T02:41:21.984Z,0.00
2023-05-22T02:42:21.974Z,0.00
2023-05-22T02:43:21.996Z,0.00
2023-05-22T02:44:22.038Z,0.00
2023-05-22T02:45:22.044Z,0.00
2023-05-22T02:46:22.171Z,0.00
2023-05-22T02:47:22.094Z,0.00
2023-05-22T02:48:22.113Z,0.00
2023-05-22T02:49:22.141Z,0.00
2023-05-22T02:50:22.166Z,0.00
2023-05-22T02:51:22.243Z,0.00
2023-05-22T02:52:22.212Z,0.00
2023-05-22T02:53:22.236Z,0.00
2023-05-22T02:54:22.257Z,0.00
2023-05-22T02:55:22.282Z,0.00
2023-05-22T02:56:22.332Z,0.00
2023-05-22T02:57:22.327Z,0.00
2023-05-22T02:58:22.408Z,0.00
2023-05-22T02:59:22.374Z,0.00
2023-05-22T03:00:22.472Z,0.00
2023-05-22T03:01:22.456Z,0.00
2023-05-22T03:02:22.445Z,0.00
2023-05-22T03:03:22.543Z,0.00
2023-05-22T03:04:22.504Z,0.00
2023-05-22T03:05:22.519Z,0.00
2023-05-22T03:06:22.575Z,0.00
2023-05-22T03:07:22.620Z,0.00
2023-05-22T03:08:22.599Z,4.00
2023-05-22T03:09:22.619Z,4.00
2023-05-22T03:10:22.654Z,4.00
2023-05-22T03:11:22.662Z,0.00
2023-05-22T03:12:22.724Z,0.00
2023-05-22T03:13:22.791Z,0.00
2023-05-22T03:14:22.757Z,4.00
2023-05-22T03:15:22.751Z,4.00
2023-05-22T03:16:22.801Z,4.00
2023-05-22T03:17:22.810Z,4.00
2023-05-22T03:18:23.891Z,0.00
2023-05-22T03:19:22.950Z,4.00
2023-05-22T03:20:22.888Z,4.00
2023-05-22T03:21:22.911Z,4.00
2023-05-22T03:22:22.937Z,4.00
2023-05-22T03:23:22.984Z,4.00
2023-05-22T03:24:22.998Z,4.00
2023-05-22T03:25:23.021Z,8.00
2023-05-22T03:26:23.020Z,4.00
2023-05-22T03:27:23.045Z,8.00
2023-05-22T03:28:23.069Z,8.00
2023-05-22T03:29:23.163Z,8.00
2023-05-22T03:30:23.125Z,8.00
2023-05-22T03:31:23.138Z,12.00
2023-05-22T03:32:23.188Z,12.00
2023-05-22T03:33:23.209Z,12.00
2023-05-22T03:34:23.260Z,12.00
2023-05-22T03:35:23.233Z,12.00
2023-05-22T03:36:23.258Z,12.00
2023-05-22T03:37:23.284Z,12.00
2023-05-22T03:38:23.307Z,12.00
2023-05-22T03:39:23.360Z,16.00
2023-05-22T03:40:23.377Z,16.00
2023-05-22T03:41:23.376Z,20.00
2023-05-22T03:42:23.436Z,20.00
2023-05-22T03:43:23.424Z,20.00
2023-05-22T03:44:23.474Z,20.00
2023-05-22T03:45:23.475Z,20.00
2023-05-22T03:46:23.555Z,24.00
2023-05-22T03:47:23.573Z,24.00
2023-05-22T03:48:23.549Z,24.00
2023-05-22T03:49:23.569Z,24.00
2023-05-22T03:50:23.589Z,28.00
2023-05-22T03:51:23.615Z,32.00
2023-05-22T03:52:23.684Z,32.00
2023-05-22T03:53:23.658Z,32.00
2023-05-22T03:54:23.711Z,32.00
2023-05-22T03:55:23.706Z,36.00
2023-05-22T03:56:23.731Z,40.00
2023-05-22T03:57:23.786Z,40.00
2023-05-22T03:58:23.784Z,44.00
2023-05-22T03:59:23.798Z,44.00
2023-05-22T04:00:25.237Z,48.00
2023-05-22T04:01:23.873Z,48.00
2023-05-22T04:02:24.006Z,52.00
2023-05-22T04:03:24.009Z,52.00
2023-05-22T04:04:23.926Z,52.00
2023-05-22T04:05:23.992Z,56.00
2023-05-22T04:06:23.972Z,56.00
2023-05-22T04:07:24.019Z,56.00
2023-05-22T04:08:24.022Z,56.00
2023-05-22T04:09:24.066Z,56.00
2023-05-22T04:10:24.080Z,56.00
2023-05-22T04:11:24.083Z,60.00
2023-05-22T04:12:24.130Z,60.00
2023-05-22T04:13:24.130Z,60.00
2023-05-22T04:14:24.151Z,64.00
2023-05-22T04:15:24.175Z,64.00
2023-05-22T04:16:24.269Z,60.00
2023-05-22T04:17:24.417Z,60.00
2023-05-22T04:18:24.240Z,68.00
2023-05-22T04:19:24.342Z,64.00
2023-05-22T04:20:24.288Z,72.00
2023-05-22T04:21:24.315Z,72.00
2023-05-22T04:22:24.333Z,72.00
2023-05-22T04:23:24.363Z,72.00
2023-05-22T04:24:24.444Z,80.00
2023-05-22T04:25:24.404Z,84.00
2023-05-22T04:26:24.442Z,88.00
2023-05-22T04:27:24.460Z,92.00
2023-05-22T04:28:24.492Z,96.00
2023-05-22T04:29:24.540Z,104.00
2023-05-22T04:30:24.527Z,108.00
2023-05-22T04:31:24.580Z,116.00
2023-05-22T04:32:24.631Z,124.00
2023-05-22T04:33:24.608Z,132.00
2023-05-22T04:34:24.651Z,144.00
2023-05-22T04:35:24.637Z,156.00
2023-05-22T04:36:24.664Z,164.00
2023-05-22T04:37:24.686Z,176.00
2023-05-22T04:38:24.709Z,180.00
2023-05-22T04:39:24.790Z,188.00
2023-05-22T04:40:24.756Z,196.00
2023-05-22T04:41:24.775Z,200.00
2023-05-22T04:42:24.812Z,204.00
2023-05-22T04:43:24.827Z,204.00
2023-05-22T04:44:24.885Z,208.00
2023-05-22T04:45:24.904Z,208.00
2023-05-22T04:46:24.946Z,216.00
2023-05-22T04:47:24.973Z,220.00
2023-05-22T04:48:24.943Z,228.00
2023-05-22T04:49:24.964Z,228.00
2023-05-22T04:50:25.057Z,224.00
2023-05-22T04:51:25.015Z,216.00
2023-05-22T04:52:25.037Z,216.00
2023-05-22T04:53:25.072Z,216.00
2023-05-22T04:54:25.080Z,216.00
2023-05-22T04:55:25.155Z,220.00
2023-05-22T04:56:35.650Z,216.00
2023-05-22T04:57:25.154Z,220.00
2023-05-22T04:58:25.283Z,224.00
2023-05-22T04:59:25.201Z,224.00
2023-05-22T05:00:25.259Z,232.00
2023-05-22T05:01:25.275Z,228.00
2023-05-22T05:02:25.339Z,220.00
2023-05-22T05:03:25.323Z,220.00
2023-05-22T05:04:25.383Z,216.00
2023-05-22T05:05:25.342Z,208.00
2023-05-22T05:06:25.377Z,204.00
2023-05-22T05:07:25.395Z,200.00
2023-05-22T05:08:25.439Z,196.00
2023-05-22T05:09:25.463Z,196.00
2023-05-22T05:10:25.462Z,204.00
2023-05-22T05:11:25.480Z,208.00
2023-05-22T05:12:25.510Z,212.00
2023-05-22T05:13:25.547Z,212.00
2023-05-22T05:14:25.564Z,216.00
2023-05-22T05:15:25.613Z,220.00
2023-05-22T05:16:25.615Z,224.00
2023-05-22T05:17:25.727Z,228.00
2023-05-22T05:18:25.646Z,228.00
2023-05-22T05:19:25.769Z,232.00
2023-05-22T05:20:25.738Z,228.00
2023-05-22T05:21:25.722Z,232.00
2023-05-22T05:22:25.751Z,232.00
2023-05-22T05:23:25.765Z,232.00
2023-05-22T05:24:25.791Z,236.00
2023-05-22T05:25:25.847Z,228.00
2023-05-22T05:26:25.838Z,228.00
2023-05-22T05:27:25.858Z,224.00
2023-05-22T05:28:25.894Z,224.00
2023-05-22T05:29:25.921Z,232.00
2023-05-22T05:30:25.941Z,240.00
2023-05-22T05:31:25.986Z,244.00
2023-05-22T05:32:26.072Z,252.00
2023-05-22T05:33:26.001Z,260.00
2023-05-22T05:34:26.031Z,272.00
2023-05-22T05:35:26.058Z,292.00
2023-05-22T05:36:26.074Z,304.00
2023-05-22T05:37:26.141Z,312.00
2023-05-22T05:38:26.123Z,316.00
2023-05-22T05:39:26.152Z,320.00
2023-05-22T05:40:26.178Z,316.00
2023-05-22T05:41:26.211Z,316.00
2023-05-22T05:42:26.271Z,320.00
2023-05-22T05:43:26.239Z,332.00
2023-05-22T05:44:26.265Z,324.00
2023-05-22T05:45:26.284Z,312.00
2023-05-22T05:46:26.345Z,296.00
2023-05-22T05:47:26.405Z,280.00
2023-05-22T05:48:26.360Z,268.00
2023-05-22T05:49:26.381Z,256.00
2023-05-22T05:50:26.414Z,236.00
2023-05-22T05:51:26.459Z,224.00
2023-05-22T05:52:26.493Z,220.00
2023-05-22T05:53:26.508Z,220.00
2023-05-22T05:54:26.500Z,220.00
2023-05-22T05:55:26.527Z,216.00
2023-05-22T05:56:26.552Z,216.00
2023-05-22T05:57:26.576Z,224.00
2023-05-22T05:58:26.672Z,228.00
2023-05-22T05:59:26.673Z,228.00
2023-05-22T06:00:26.651Z,236.00
2023-05-22T06:01:26.677Z,244.00
2023-05-22T06:02:26.871Z,256.00
2023-05-22T06:03:26.802Z,260.00
2023-05-22T06:04:26.754Z,256.00
2023-05-22T06:05:26.827Z,256.00
2023-05-22T06:06:26.790Z,256.00
2023-05-22T06:07:26.818Z,252.00
2023-05-22T06:08:26.852Z,252.00
2023-05-22T06:09:26.935Z,252.00
2023-05-22T06:10:26.899Z,248.00
2023-05-22T06:11:26.913Z,244.00
2023-05-22T06:12:26.953Z,252.00
2023-05-22T06:13:26.957Z,256.00
2023-05-22T06:14:27.010Z,268.00
2023-05-22T06:15:27.045Z,272.00
2023-05-22T06:16:27.085Z,280.00
2023-05-22T06:17:27.102Z,284.00
2023-05-22T06:18:27.130Z,288.00
2023-05-22T06:19:27.229Z,288.00
2023-05-22T06:20:27.265Z,284.00
2023-05-22T06:21:27.210Z,280.00
2023-05-22T06:22:27.239Z,272.00
2023-05-22T06:23:27.261Z,268.00
2023-05-22T06:24:27.261Z,264.00
2023-05-22T06:25:27.377Z,260.00
2023-05-22T06:26:27.305Z,264.00
2023-05-22T06:27:27.338Z,264.00
2023-05-22T06:28:27.374Z,264.00
2023-05-22T06:29:27.396Z,268.00
2023-05-22T06:30:39.676Z,280.00
2023-05-22T06:31:27.459Z,288.00
2023-05-22T06:32:27.499Z,296.00
2023-05-22T06:33:27.520Z,312.00
2023-05-22T06:34:27.649Z,324.00
2023-05-22T06:35:27.486Z,340.00
2023-05-22T06:36:27.512Z,352.00
2023-05-22T06:37:27.542Z,360.00
2023-05-22T06:38:27.559Z,368.00
2023-05-22T06:39:28.438Z,376.00
2023-05-22T06:40:27.614Z,384.00
2023-05-22T06:41:27.662Z,396.00
2023-05-22T06:42:27.656Z,404.00
2023-05-22T06:43:27.687Z,412.00
2023-05-22T06:44:27.714Z,420.00
2023-05-22T06:45:27.724Z,424.00
2023-05-22T06:46:27.952Z,428.00
2023-05-22T06:47:27.828Z,432.00
2023-05-22T06:48:27.797Z,444.00
2023-05-22T06:49:27.825Z,452.00
2023-05-22T06:50:28.098Z,468.00
2023-05-22T06:51:27.899Z,484.00
2023-05-22T06:52:27.922Z,504.00
2023-05-22T06:53:27.915Z,520.00
2023-05-22T06:54:27.969Z,524.00
2023-05-22T06:55:27.989Z,524.00
2023-05-22T06:56:28.001Z,512.00
2023-05-22T06:57:28.755Z,496.00
2023-05-22T06:58:28.091Z,484.00
2023-05-22T06:59:28.095Z,492.00
2023-05-22T07:00:28.148Z,500.00
2023-05-22T07:01:28.171Z,516.00
2023-05-22T07:02:28.290Z,540.00
2023-05-22T07:03:28.161Z,568.00
2023-05-22T07:04:28.192Z,592.00
2023-05-22T07:05:28.268Z,608.00
2023-05-22T07:06:28.272Z,596.00
2023-05-22T07:07:28.272Z,568.00
2023-05-22T07:08:30.334Z,552.00
2023-05-22T07:09:28.300Z,532.00
2023-05-22T07:10:28.408Z,524.00
2023-05-22T07:11:28.384Z,516.00
2023-05-22T07:12:28.378Z,516.00
2023-05-22T07:13:28.400Z,528.00
2023-05-22T07:14:28.422Z,540.00
2023-05-22T07:15:28.454Z,560.00
2023-05-22T07:16:28.525Z,572.00
2023-05-22T07:17:28.526Z,588.00
2023-05-22T07:18:28.522Z,588.00
2023-05-22T07:19:28.637Z,596.00
2023-05-22T07:20:28.624Z,604.00
2023-05-22T07:21:28.620Z,612.00
2023-05-22T07:22:28.733Z,624.00
2023-05-22T07:23:28.653Z,640.00
2023-05-22T07:24:28.676Z,660.00
2023-05-22T07:25:28.690Z,672.00
2023-05-22T07:26:28.752Z,680.00
2023-05-22T07:27:28.748Z,676.00
2023-05-22T07:28:28.767Z,680.00
2023-05-22T07:29:28.791Z,688.00
2023-05-22T07:30:28.833Z,688.00
2023-05-22T07:31:28.893Z,696.00
2023-05-22T07:32:28.938Z,692.00
2023-05-22T07:33:28.899Z,696.00
2023-05-22T07:34:29.643Z,708.00
2023-05-22T07:35:28.935Z,700.00
2023-05-22T07:36:28.985Z,676.00
2023-05-22T07:37:28.984Z,648.00
2023-05-22T07:38:29.057Z,636.00
2023-05-22T07:39:29.048Z,632.00
2023-05-22T07:40:29.060Z,612.00
2023-05-22T07:41:29.092Z,580.00
2023-05-22T07:42:29.114Z,536.00
2023-05-22T07:43:29.188Z,524.00
2023-05-22T07:44:29.170Z,528.00
2023-05-22T07:45:29.180Z,548.00
2023-05-22T07:46:29.291Z,564.00
2023-05-22T07:47:29.272Z,568.00
2023-05-22T07:48:29.295Z,576.00
2023-05-22T07:49:29.274Z,584.00
2023-05-22T07:50:29.313Z,596.00
2023-05-22T07:51:29.329Z,604.00
2023-05-22T07:52:29.351Z,620.00
2023-05-22T07:53:29.408Z,628.00
2023-05-22T07:54:29.460Z,656.00
2023-05-22T07:55:29.428Z,664.00
2023-05-22T07:56:29.454Z,664.00
2023-05-22T07:57:29.628Z,664.00
2023-05-22T07:58:29.575Z,672.00
2023-05-22T07:59:29.634Z,684.00
2023-05-22T08:00:29.570Z,680.00
2023-05-22T08:01:29.627Z,688.00
2023-05-22T08:02:29.753Z,696.00
2023-05-22T08:03:29.901Z,708.00
2023-05-22T08:04:29.721Z,728.00
2023-05-22T08:05:29.836Z,732.00
2023-05-22T08:06:29.698Z,748.00
2023-05-22T08:07:29.717Z,784.00
2023-05-22T08:08:31.687Z,788.00
2023-05-22T08:09:29.786Z,776.00
2023-05-22T08:10:37.301Z,780.00
2023-05-22T08:11:29.825Z,772.00
2023-05-22T08:12:29.877Z,760.00
2023-05-22T08:13:29.873Z,760.00
2023-05-22T08:14:29.895Z,764.00
2023-05-22T08:15:29.921Z,772.00
2023-05-22T08:16:29.972Z,796.00
2023-05-22T08:17:30.088Z,828.00
2023-05-22T08:18:30.298Z,856.00
2023-05-22T08:19:30.105Z,864.00
2023-05-22T08:20:30.075Z,880.00
2023-05-22T08:21:30.069Z,884.00
2023-05-22T08:22:30.131Z,876.00
2023-05-22T08:23:30.127Z,872.00
2023-05-22T08:24:30.145Z,868.00
2023-05-22T08:25:30.173Z,868.00
2023-05-22T08:26:32.111Z,872.00
2023-05-22T08:27:30.219Z,872.00
2023-05-22T08:28:30.244Z,864.00
2023-05-22T08:29:30.268Z,852.00
2023-05-22T08:30:30.291Z,860.00
2023-05-22T08:31:30.433Z,864.00
2023-05-22T08:32:31.393Z,872.00
2023-05-22T08:33:30.375Z,896.00
2023-05-22T08:34:30.457Z,932.00
2023-05-22T08:35:30.420Z,960.00
2023-05-22T08:36:30.441Z,972.00
2023-05-22T08:37:30.469Z,948.00
2023-05-22T08:38:30.493Z,944.00
2023-05-22T08:39:30.546Z,952.00
2023-05-22T08:40:30.542Z,948.00
2023-05-22T08:41:30.616Z,948.00
2023-05-22T08:42:30.597Z,964.00
2023-05-22T08:43:30.621Z,992.00
2023-05-22T08:44:30.672Z,1020.00
2023-05-22T08:45:30.673Z,1048.00
2023-05-22T08:46:30.762Z,1076.00
2023-05-22T08:47:30.740Z,1104.00
2023-05-22T08:48:30.756Z,1136.00
2023-05-22T08:49:30.801Z,1148.00
2023-05-22T08:50:30.794Z,1160.00
2023-05-22T08:51:30.826Z,1168.00
2023-05-22T08:52:30.844Z,1192.00
2023-05-22T08:53:30.876Z,1220.00
2023-05-22T08:54:30.973Z,1244.00
2023-05-22T08:55:30.956Z,1260.00
2023-05-22T08:56:31.067Z,1292.00
2023-05-22T08:57:30.974Z,1332.00
2023-05-22T08:58:31.083Z,1376.00
2023-05-22T08:59:31.029Z,1416.00
2023-05-22T09:00:31.088Z,1464.00
2023-05-22T09:01:31.099Z,1520.00
2023-05-22T09:02:31.112Z,1612.00
2023-05-22T09:03:31.174Z,1780.00
2023-05-22T09:04:31.154Z,2144.00
2023-05-22T09:05:31.222Z,2996.00
2023-05-22T09:06:31.205Z,2712.00
2023-05-22T09:07:31.231Z,2776.00
2023-05-22T09:08:31.282Z,3236.00
2023-05-22T09:09:31.285Z,5032.00
2023-05-22T09:10:31.332Z,3368.00
2023-05-22T09:11:31.336Z,3796.00
2023-05-22T09:12:31.387Z,2260.00
2023-05-22T09:13:31.391Z,2716.00
2023-05-22T09:14:31.446Z,5184.00
2023-05-22T09:15:31.456Z,4276.00
2023-05-22T09:16:31.501Z,3876.00
2023-05-22T09:17:31.556Z,3872.00
2023-05-22T09:18:31.525Z,4072.00
2023-05-22T09:19:31.595Z,3000.00
2023-05-22T09:20:31.577Z,2376.00
2023-05-22T09:21:31.607Z,2064.00
2023-05-22T09:22:31.657Z,2068.00
2023-05-22T09:23:31.660Z,2228.00
2023-05-22T09:24:31.687Z,2520.00
2023-05-22T09:25:31.717Z,2748.00
2023-05-22T09:26:31.741Z,3064.00
2023-05-22T09:27:31.825Z,3112.00
2023-05-22T09:28:31.810Z,4484.00
2023-05-22T09:29:31.827Z,4116.00
2023-05-22T09:30:32.133Z,4764.00
2023-05-22T09:31:32.040Z,4736.00
2023-05-22T09:32:31.948Z,4028.00
2023-05-22T09:33:31.965Z,4700.00
2023-05-22T09:34:31.963Z,3900.00
2023-05-22T09:35:31.996Z,4684.00
2023-05-22T09:36:32.022Z,5252.00
2023-05-22T09:37:32.102Z,5628.00
2023-05-22T09:38:32.079Z,4788.00
2023-05-22T09:39:32.148Z,4920.00
2023-05-22T09:40:32.133Z,5128.00
2023-05-22T09:41:32.172Z,4484.00
2023-05-22T09:42:32.192Z,4564.00
2023-05-22T09:43:32.226Z,4792.00
2023-05-22T09:44:32.259Z,4812.00
2023-05-22T09:45:32.286Z,4548.00
2023-05-22T09:46:32.408Z,4264.00
2023-05-22T09:47:32.367Z,4484.00
2023-05-22T09:48:32.374Z,4172.00
2023-05-22T09:49:32.434Z,3508.00
2023-05-22T09:50:32.443Z,3648.00
2023-05-22T09:51:32.491Z,3952.00
2023-05-22T09:52:32.499Z,3968.00
2023-05-22T09:53:32.532Z,4252.00
2023-05-22T09:54:32.676Z,4160.00
2023-05-22T09:55:32.579Z,4232.00
2023-05-22T09:56:39.184Z,4212.00
2023-05-22T09:57:32.659Z,4324.00
2023-05-22T09:58:32.669Z,4756.00
2023-05-22T09:59:32.733Z,4236.00
2023-05-22T10:00:32.730Z,3756.00
2023-05-22T10:01:32.802Z,3652.00
2023-05-22T10:02:32.842Z,3900.00
2023-05-22T10:03:32.825Z,4024.00
2023-05-22T10:04:32.958Z,5676.00
2023-05-22T10:05:32.890Z,5840.00
2023-05-22T10:06:32.919Z,6540.00
2023-05-22T10:07:32.948Z,7084.00
2023-05-22T10:08:32.978Z,6956.00
2023-05-22T10:09:33.044Z,6628.00
2023-05-22T10:10:33.051Z,6672.00
2023-05-22T10:11:33.071Z,7184.00
2023-05-22T10:12:33.102Z,7300.00
2023-05-22T10:13:33.131Z,7424.00
2023-05-22T10:14:33.246Z,7040.00
2023-05-22T10:15:33.260Z,7688.00
2023-05-22T10:16:33.290Z,7612.00
2023-05-22T10:17:33.275Z,7612.00
2023-05-22T10:18:33.323Z,7516.00
2023-05-22T10:19:33.486Z,7192.00
2023-05-22T10:20:33.394Z,6036.00
2023-05-22T10:21:33.392Z,6688.00
2023-05-22T10:22:33.424Z,7452.00
2023-05-22T10:23:33.463Z,7164.00
2023-05-22T10:24:33.488Z,5420.00
2023-05-22T10:25:33.560Z,5260.00
2023-05-22T10:26:33.576Z,2732.00
2023-05-22T10:27:33.592Z,5680.00
2023-05-22T10:28:33.626Z,7576.00
2023-05-22T10:29:33.660Z,7520.00
2023-05-22T10:30:33.699Z,6816.00
2023-05-22T10:31:33.743Z,7384.00
2023-05-22T10:32:33.806Z,2928.00
2023-05-22T10:33:33.803Z,4732.00
2023-05-22T10:34:33.935Z,5908.00
2023-05-22T10:35:33.881Z,7092.00
2023-05-22T10:36:33.925Z,6636.00
2023-05-22T10:37:33.920Z,2800.00
2023-05-22T10:38:34.018Z,2760.00
2023-05-22T10:39:33.987Z,4040.00
2023-05-22T10:40:34.020Z,3452.00
2023-05-22T10:41:34.082Z,3640.00
2023-05-22T10:42:34.193Z,3548.00
2023-05-22T10:43:34.116Z,3028.00
2023-05-22T10:44:34.171Z,3220.00
2023-05-22T10:45:34.202Z,4208.00
2023-05-22T10:46:34.353Z,3276.00
2023-05-22T10:47:34.278Z,5040.00
2023-05-22T10:48:34.276Z,4180.00
2023-05-22T10:49:34.317Z,3128.00
2023-05-22T10:50:34.452Z,2756.00
2023-05-22T10:51:34.393Z,2812.00
2023-05-22T10:52:34.455Z,3060.00
2023-05-22T10:53:34.444Z,2608.00
2023-05-22T10:54:34.474Z,2632.00
2023-05-22T10:55:34.510Z,3596.00
2023-05-22T10:56:34.544Z,3288.00
2023-05-22T10:57:34.572Z,4560.00
2023-05-22T10:58:34.599Z,4712.00
2023-05-22T10:59:34.652Z,5448.00
2023-05-22T11:00:34.660Z,5544.00
2023-05-22T11:01:34.757Z,6044.00
2023-05-22T11:02:34.769Z,4692.00
2023-05-22T11:03:34.801Z,4300.00
2023-05-22T11:04:34.807Z,5968.00
2023-05-22T11:05:34.825Z,4040.00
2023-05-22T11:06:35.012Z,4404.00
2023-05-22T11:07:34.889Z,5772.00
2023-05-22T11:08:34.942Z,6100.00
2023-05-22T11:09:34.956Z,7024.00
2023-05-22T11:10:34.976Z,6288.00
2023-05-22T11:11:35.009Z,8604.00
2023-05-22T11:12:35.046Z,8488.00
2023-05-22T11:13:35.108Z,8692.00
2023-05-22T11:14:35.109Z,8816.00
2023-05-22T11:15:35.164Z,8480.00
2023-05-22T11:16:35.177Z,8564.00
2023-05-22T11:17:35.262Z,8684.00
2023-05-22T11:18:35.264Z,8596.00
2023-05-22T11:19:35.367Z,8672.00
2023-05-22T11:20:35.307Z,8408.00
2023-05-22T11:21:35.337Z,8460.00
2023-05-22T11:22:35.480Z,8580.00
2023-05-22T11:23:35.431Z,8700.00
2023-05-22T11:24:35.450Z,8588.00
2023-05-22T11:25:35.497Z,8568.00
2023-05-22T11:26:35.508Z,8924.00
2023-05-22T11:27:35.542Z,10000.00
2023-05-22T11:28:35.604Z,11840.00
2023-05-22T11:29:35.705Z,10768.00
2023-05-22T11:30:35.638Z,8524.00
2023-05-22T11:31:35.691Z,8004.00
2023-05-22T11:32:35.809Z,4128.00
2023-05-22T11:33:35.750Z,2796.00
2023-05-22T11:34:35.809Z,2364.00
2023-05-22T11:35:35.896Z,2748.00
2023-05-22T11:36:35.858Z,2648.00
2023-05-22T11:37:35.891Z,2552.00
2023-05-22T11:38:36.022Z,2640.00
2023-05-22T11:39:35.952Z,2568.00
2023-05-22T11:40:36.016Z,2752.00
2023-05-22T11:41:36.025Z,2284.00
2023-05-22T11:42:36.065Z,2228.00
2023-05-22T11:43:36.093Z,2320.00
2023-05-22T11:44:36.150Z,2480.00
2023-05-22T11:45:36.181Z,2784.00
2023-05-22T11:46:36.236Z,2356.00
2023-05-22T11:47:36.294Z,2312.00
2023-05-22T11:48:36.283Z,2384.00
2023-05-22T11:49:36.296Z,2364.00
2023-05-22T11:50:42.211Z,2264.00
2023-05-22T11:51:36.354Z,2548.00
2023-05-22T11:52:36.383Z,2736.00
2023-05-22T11:53:36.442Z,2624.00
2023-05-22T11:54:38.583Z,2680.00
2023-05-22T11:55:36.513Z,2420.00
2023-05-22T11:56:36.516Z,2456.00
2023-05-22T11:57:36.542Z,2776.00
2023-05-22T11:58:36.589Z,2552.00
2023-05-22T11:59:36.598Z,3036.00
2023-05-22T12:00:36.802Z,3088.00
2023-05-22T12:01:36.688Z,3068.00
2023-05-22T12:02:36.776Z,3068.00
2023-05-22T12:03:36.816Z,3080.00
2023-05-22T12:04:36.761Z,3284.00
2023-05-22T12:05:36.844Z,3332.00
2023-05-22T12:06:36.906Z,3364.00
2023-05-22T12:07:36.846Z,3436.00
2023-05-22T12:08:36.875Z,4680.00
2023-05-22T12:09:36.905Z,5764.00
2023-05-22T12:10:37.318Z,5756.00
2023-05-22T12:11:36.996Z,4600.00
2023-05-22T12:12:37.023Z,2932.00
2023-05-22T12:13:37.036Z,3248.00
2023-05-22T12:14:37.072Z,3284.00
2023-05-22T12:15:37.105Z,3232.00
2023-05-22T12:16:37.199Z,3240.00
2023-05-22T12:17:37.211Z,3260.00
2023-05-22T12:18:37.217Z,3500.00
2023-05-22T12:19:37.269Z,3560.00
2023-05-22T12:20:37.498Z,3252.00
2023-05-22T12:21:37.286Z,3240.00
2023-05-22T12:22:37.341Z,3036.00
2023-05-22T12:23:37.341Z,3332.00
2023-05-22T12:24:37.379Z,3288.00
2023-05-22T12:25:37.434Z,4216.00
2023-05-22T12:26:37.591Z,3756.00
2023-05-22T12:27:38.612Z,4144.00
2023-05-22T12:28:37.497Z,3152.00
2023-05-22T12:29:37.533Z,3204.00
2023-05-22T12:30:37.798Z,3200.00
2023-05-22T12:31:37.763Z,3240.00
2023-05-22T12:32:37.784Z,3292.00
2023-05-22T12:33:37.658Z,3332.00
2023-05-22T12:34:37.693Z,3408.00
2023-05-22T12:35:37.750Z,3416.00
2023-05-22T12:36:37.749Z,3580.00